createdAt,value
2018-03-17T00:02:08.620Z,1.50
2018-03-17T00:04:36.161Z,1.50
2018-03-17T00:07:03.759Z,1.50
2018-03-17T00:09:31.308Z,1.40
2018-03-17T00:11:58.851Z,1.40
2018-03-17T00:14:26.764Z,1.30
2018-03-17T00:16:54.264Z,1.30
2018-03-17T00:19:21.758Z,1.30
2018-03-17T00:21:50.017Z,1.30
2018-03-17T00:24:17.547Z,1.30
2018-03-17T00:26:45.039Z,1.20
2018-03-17T00:29:13.303Z,1.20
2018-03-17T00:31:40.805Z,1.10
2018-03-17T00:34:08.304Z,1.20
2018-03-17T00:36:36.616Z,1.20
2018-03-17T00:39:04.128Z,1.10
2018-03-17T00:41:32.433Z,0.90
2018-03-17T00:43:59.948Z,0.90
2018-03-17T00:46:28.253Z,0.90
2018-03-17T00:48:55.748Z,0.90
2018-03-17T00:51:23.241Z,0.90
2018-03-17T00:53:52.740Z,0.90
2018-03-17T00:56:21.528Z,0.80
2018-03-17T00:58:49.835Z,0.80
2018-03-17T01:01:17.333Z,0.80
2018-03-17T01:03:44.838Z,0.70
2018-03-17T01:06:13.820Z,0.70
2018-03-17T01:08:41.343Z,0.60
2018-03-17T01:11:08.836Z,0.60
2018-03-17T01:13:37.118Z,0.60
2018-03-17T01:16:05.377Z,0.60
2018-03-17T01:18:32.871Z,0.60
2018-03-17T01:21:01.132Z,0.60
2018-03-17T01:23:29.388Z,0.50
2018-03-17T01:25:57.736Z,0.50
2018-03-17T01:28:25.312Z,0.50
2018-03-17T01:30:53.603Z,0.50
2018-03-17T01:33:21.101Z,0.50
2018-03-17T01:35:48.609Z,0.40
2018-03-17T01:38:18.187Z,0.50
2018-03-17T01:40:45.696Z,0.50
2018-03-17T01:43:13.950Z,0.40
2018-03-17T01:45:41.460Z,0.40
2018-03-17T01:48:08.959Z,0.40
2018-03-17T01:50:36.464Z,0.30
2018-03-17T01:53:04.728Z,0.30
2018-03-17T01:55:32.996Z,0.30
2018-03-17T01:58:00.494Z,0.20
2018-03-17T02:00:27.992Z,0.30
2018-03-17T02:02:55.504Z,0.30
2018-03-17T02:05:23.031Z,0.30
2018-03-17T02:07:51.284Z,0.30
2018-03-17T02:10:18.790Z,0.30
2018-03-17T02:12:46.281Z,0.20
2018-03-17T02:15:13.790Z,0.10
2018-03-17T02:17:42.046Z,0.10
2018-03-17T02:20:09.541Z,0.10
2018-03-17T02:22:37.052Z,0.10
2018-03-17T02:25:04.549Z,0.20
2018-03-17T02:27:32.812Z,0.20
2018-03-17T02:30:00.311Z,0.10
2018-03-17T02:32:27.809Z,0.10
2018-03-17T02:34:55.302Z,0.10
2018-03-17T02:37:23.596Z,0.00
2018-03-17T02:39:51.105Z,0.00
2018-03-17T02:42:18.591Z,0.00
2018-03-17T02:44:46.859Z,0.10
2018-03-17T02:47:15.132Z,0.30
2018-03-17T02:49:43.455Z,0.20
2018-03-17T02:52:10.937Z,0.20
2018-03-17T02:54:38.444Z,0.20
2018-03-17T02:57:05.930Z,0.20
2018-03-17T02:59:33.455Z,0.20
2018-03-17T03:02:01.714Z,0.20
2018-03-17T03:04:29.973Z,0.30
2018-03-17T03:06:57.461Z,0.20
2018-03-17T03:09:25.705Z,0.40
2018-03-17T03:11:53.194Z,0.40
2018-03-17T03:14:21.494Z,0.50
2018-03-17T03:16:48.990Z,0.40
2018-03-17T03:19:16.476Z,0.50
2018-03-17T03:21:44.731Z,0.60
2018-03-17T03:24:12.222Z,0.60
2018-03-17T03:26:39.715Z,0.70
2018-03-17T03:29:07.206Z,0.70
2018-03-17T03:31:34.693Z,0.70
2018-03-17T03:34:02.951Z,0.70
2018-03-17T03:36:30.441Z,0.70
2018-03-17T03:38:58.691Z,0.80
2018-03-17T03:41:26.186Z,0.80
2018-03-17T03:43:53.675Z,0.90
2018-03-17T03:46:21.162Z,0.90
2018-03-17T03:48:48.638Z,1.00
2018-03-17T03:51:16.930Z,1.00
2018-03-17T03:53:44.418Z,1.00
2018-03-17T03:56:12.673Z,1.00
2018-03-17T03:58:40.178Z,1.00
2018-03-17T04:01:07.671Z,1.00
2018-03-17T04:03:35.923Z,0.90
2018-03-17T04:06:03.412Z,0.90
2018-03-17T04:08:30.888Z,0.90
2018-03-17T04:10:58.385Z,0.80
2018-03-17T04:13:25.866Z,0.80
2018-03-17T04:15:54.123Z,0.90
2018-03-17T04:18:21.618Z,0.80
2018-03-17T04:20:49.115Z,1.00
2018-03-17T04:23:16.600Z,1.00
2018-03-17T04:25:44.103Z,1.00
2018-03-17T04:28:11.579Z,1.00
2018-03-17T04:30:39.081Z,1.00
2018-03-17T04:33:06.562Z,1.10
2018-03-17T04:35:34.805Z,1.10
2018-03-17T04:38:02.295Z,1.10
2018-03-17T04:40:30.568Z,1.10
2018-03-17T04:42:58.814Z,1.20
2018-03-17T04:45:26.306Z,1.20
2018-03-17T04:50:47.116Z,1.40
2018-03-17T04:53:15.385Z,1.40
2018-03-17T04:55:42.881Z,1.40
2018-03-17T04:58:10.376Z,1.40
2018-03-17T05:00:37.882Z,1.30
2018-03-17T05:03:05.482Z,1.30
2018-03-17T05:05:32.984Z,1.30
2018-03-17T05:08:00.481Z,1.30
2018-03-17T05:10:27.979Z,1.30
2018-03-17T05:12:56.988Z,1.20
2018-03-17T05:15:24.491Z,1.20
2018-03-17T05:17:51.994Z,1.20
2018-03-17T05:20:19.500Z,1.20
2018-03-17T05:22:47.001Z,1.20
2018-03-17T05:25:14.508Z,1.20
2018-03-17T05:27:42.081Z,1.30
2018-03-17T05:30:09.624Z,1.30
2018-03-17T05:32:37.133Z,1.30
2018-03-17T05:35:04.628Z,1.30
2018-03-17T05:37:32.898Z,1.30
2018-03-17T05:40:01.165Z,1.30
2018-03-17T05:42:28.677Z,1.30
2018-03-17T05:44:56.177Z,1.30
2018-03-17T05:47:23.689Z,1.40
2018-03-17T05:49:51.267Z,1.40
2018-03-17T05:52:18.781Z,1.50
2018-03-17T05:54:46.292Z,1.50
2018-03-17T05:57:13.797Z,1.60
2018-03-17T05:59:41.304Z,1.70
2018-03-17T06:02:08.817Z,1.70
2018-03-17T06:04:36.331Z,1.80
2018-03-17T06:07:03.840Z,1.80
2018-03-17T06:09:32.107Z,2.00
2018-03-17T06:11:59.621Z,2.00
2018-03-17T06:14:27.166Z,2.20
2018-03-17T06:16:55.436Z,2.40
2018-03-17T06:19:22.938Z,2.40
2018-03-17T06:21:50.437Z,2.60
2018-03-17T06:24:17.936Z,2.60
2018-03-17T06:26:45.445Z,2.80
2018-03-17T06:29:12.954Z,3.00
2018-03-17T06:31:40.465Z,3.30
2018-03-17T06:34:07.969Z,3.40
2018-03-17T06:36:36.235Z,3.50
2018-03-17T06:39:03.771Z,3.50
2018-03-17T06:41:31.274Z,3.60
2018-03-17T06:43:58.777Z,3.60
2018-03-17T06:46:26.282Z,3.60
2018-03-17T06:48:53.768Z,3.70
2018-03-17T06:51:21.268Z,3.80
2018-03-17T06:53:49.525Z,3.90
2018-03-17T06:56:17.028Z,3.90
2018-03-17T06:58:44.531Z,3.90
2018-03-17T07:01:17.800Z,3.80
2018-03-17T07:03:45.293Z,3.90
2018-03-17T07:06:12.832Z,3.90
2018-03-17T07:08:40.336Z,4.10
2018-03-17T07:11:08.764Z,4.40
2018-03-17T07:13:36.259Z,4.40
2018-03-17T07:16:03.784Z,4.50
2018-03-17T07:18:31.276Z,4.50
2018-03-17T07:20:58.789Z,4.70
2018-03-17T07:23:27.046Z,4.90
2018-03-17T07:25:55.322Z,5.00
2018-03-17T07:28:23.592Z,4.90
2018-03-17T07:30:51.090Z,4.90
2018-03-17T07:33:18.668Z,5.00
2018-03-17T07:35:46.168Z,5.00
2018-03-17T07:38:14.440Z,5.00
2018-03-17T07:40:41.932Z,5.00
2018-03-17T07:43:09.432Z,5.10
2018-03-17T07:45:37.106Z,5.20
2018-03-17T07:48:04.624Z,5.20
2018-03-17T07:50:32.117Z,5.10
2018-03-17T07:52:59.621Z,5.00
2018-03-17T07:55:27.245Z,5.10
2018-03-17T07:57:54.749Z,5.10
2018-03-17T08:00:22.249Z,5.10
2018-03-17T08:02:49.751Z,5.20
2018-03-17T08:05:18.011Z,5.50
2018-03-17T08:07:46.280Z,5.60
2018-03-17T08:10:14.550Z,5.60
2018-03-17T08:12:42.049Z,5.60
2018-03-17T08:15:09.544Z,5.60
2018-03-17T08:17:37.056Z,5.60
2018-03-17T08:20:04.685Z,5.40
2018-03-17T08:22:32.185Z,5.40
2018-03-17T08:25:00.446Z,5.30
2018-03-17T08:27:27.939Z,5.30
2018-03-17T08:29:56.836Z,5.50
2018-03-17T08:32:24.477Z,5.60
2018-03-17T08:34:52.736Z,5.40
2018-03-17T08:37:20.390Z,5.40
2018-03-17T08:39:47.888Z,5.50
2018-03-17T08:42:15.660Z,5.60
2018-03-17T08:44:43.173Z,5.60
2018-03-17T08:47:10.680Z,5.60
2018-03-17T08:49:38.181Z,5.60
2018-03-17T08:52:05.694Z,5.50
2018-03-17T08:54:33.206Z,5.50
2018-03-17T08:57:00.710Z,5.60
2018-03-17T08:59:28.196Z,5.60
2018-03-17T09:01:55.706Z,5.60
2018-03-17T09:04:23.213Z,5.70
2018-03-17T09:06:50.721Z,5.80
2018-03-17T09:09:18.996Z,5.70
2018-03-17T09:11:47.449Z,5.70
2018-03-17T09:14:15.205Z,5.70
2018-03-17T09:16:42.712Z,5.90
2018-03-17T09:19:11.819Z,5.80
2018-03-17T09:21:40.338Z,5.90
2018-03-17T09:24:07.926Z,5.80
2018-03-17T09:26:36.282Z,6.40
2018-03-17T09:29:04.835Z,6.30
2018-03-17T09:31:32.332Z,6.40
2018-03-17T09:33:59.850Z,6.20
2018-03-17T09:36:27.345Z,6.10
2018-03-17T09:38:54.908Z,6.10
2018-03-17T09:41:22.400Z,5.90
2018-03-17T09:43:49.912Z,5.90
2018-03-17T09:46:17.416Z,5.80
2018-03-17T09:48:44.933Z,5.70
2018-03-17T09:51:12.436Z,5.70
2018-03-17T09:53:39.942Z,5.50
2018-03-17T09:56:07.443Z,5.50
2018-03-17T09:58:34.944Z,5.40
2018-03-17T10:01:03.213Z,5.20
2018-03-17T10:03:31.513Z,5.20
2018-03-17T10:05:59.036Z,5.30
2018-03-17T10:08:26.538Z,5.30
2018-03-17T10:10:54.032Z,5.20
2018-03-17T10:13:21.557Z,5.20
2018-03-17T10:15:49.821Z,5.30
2018-03-17T10:18:17.468Z,5.30
2018-03-17T10:20:44.969Z,5.40
2018-03-17T10:23:13.271Z,5.50
2018-03-17T10:25:41.786Z,5.50
2018-03-17T10:28:10.070Z,5.30
2018-03-17T10:30:38.355Z,5.30
2018-03-17T10:33:06.172Z,5.50
2018-03-17T10:35:34.441Z,5.40
2018-03-17T10:38:02.715Z,5.30
2018-03-17T10:40:30.984Z,5.10
2018-03-17T10:42:58.492Z,5.10
2018-03-17T10:45:25.986Z,5.00
2018-03-17T10:47:53.609Z,5.00
2018-03-17T10:50:21.895Z,5.10
2018-03-17T10:52:49.400Z,5.00
2018-03-17T10:55:16.994Z,5.00
2018-03-17T10:57:44.492Z,5.00
2018-03-17T11:00:12.010Z,5.10
2018-03-17T11:02:41.433Z,5.10
2018-03-17T11:05:08.988Z,5.20
2018-03-17T11:07:36.484Z,5.20
2018-03-17T11:10:06.996Z,5.20
2018-03-17T11:12:34.516Z,5.30
2018-03-17T11:15:02.008Z,5.40
2018-03-17T11:17:29.516Z,5.40
2018-03-17T11:19:57.024Z,5.40
2018-03-17T11:22:24.523Z,5.40
2018-03-17T11:24:52.785Z,5.30
2018-03-17T11:27:20.294Z,5.30
2018-03-17T11:29:47.791Z,5.30
2018-03-17T11:32:15.286Z,5.30
2018-03-17T11:34:42.882Z,5.30
2018-03-17T11:37:10.374Z,5.50
2018-03-17T11:39:37.893Z,5.60
2018-03-17T11:42:05.452Z,5.60
2018-03-17T11:44:32.952Z,5.70
2018-03-17T11:47:00.465Z,6.00
2018-03-17T11:49:27.972Z,5.80
2018-03-17T11:51:55.470Z,5.80
2018-03-17T11:54:22.972Z,5.70
2018-03-17T11:56:50.465Z,5.70
2018-03-17T11:59:18.088Z,5.80
2018-03-17T12:01:45.616Z,6.00
2018-03-17T12:04:13.122Z,6.10
2018-03-17T12:06:40.622Z,5.90
2018-03-17T12:09:08.158Z,5.90
2018-03-17T12:11:36.419Z,5.80
2018-03-17T12:14:04.706Z,5.60
2018-03-17T12:16:32.346Z,5.60
2018-03-17T12:19:01.626Z,5.50
2018-03-17T12:21:29.116Z,5.40
2018-03-17T12:23:57.384Z,5.20
2018-03-17T12:26:25.701Z,5.30
2018-03-17T12:28:53.255Z,5.30
2018-03-17T12:31:20.808Z,5.20
2018-03-17T12:33:48.420Z,5.10
2018-03-17T12:36:15.984Z,5.10
2018-03-17T12:38:43.581Z,5.00
2018-03-17T12:41:11.934Z,4.80
2018-03-17T12:43:39.472Z,4.80
2018-03-17T12:46:06.980Z,4.80
2018-03-17T12:48:35.344Z,4.70
2018-03-17T12:51:02.916Z,4.70
2018-03-17T12:53:30.408Z,4.60
2018-03-17T12:55:57.903Z,4.60
2018-03-17T12:58:25.398Z,4.50
2018-03-17T13:00:52.906Z,4.50
2018-03-17T13:03:20.410Z,4.40
2018-03-17T13:05:47.913Z,4.30
2018-03-17T13:08:15.877Z,4.30
2018-03-17T13:10:43.404Z,4.40
2018-03-17T13:13:12.317Z,4.40
2018-03-17T13:15:43.927Z,4.50
2018-03-17T13:18:12.200Z,4.50
2018-03-17T13:20:40.781Z,4.50
2018-03-17T13:23:14.137Z,4.50
2018-03-17T13:25:41.641Z,4.50
2018-03-17T13:28:32.404Z,4.40
2018-03-17T13:30:59.929Z,4.40
2018-03-17T13:33:27.432Z,4.30
2018-03-17T13:36:06.926Z,4.30
2018-03-17T13:38:34.459Z,4.30
2018-03-17T13:41:02.734Z,4.50
2018-03-17T13:43:30.302Z,4.50
2018-03-17T13:45:57.824Z,4.70
2018-03-17T13:48:25.334Z,4.60
2018-03-17T13:50:52.938Z,4.50
2018-03-17T13:53:22.430Z,4.50
2018-03-17T13:55:49.960Z,4.40
2018-03-17T13:58:17.449Z,4.40
2018-03-17T14:00:46.292Z,4.40
2018-03-17T14:03:13.798Z,4.30
2018-03-17T14:05:41.437Z,4.20
2018-03-17T14:08:08.967Z,4.30
2018-03-17T14:10:36.458Z,4.30
2018-03-17T14:13:03.956Z,4.20
2018-03-17T14:15:31.462Z,4.20
2018-03-17T14:17:59.032Z,4.10
2018-03-17T14:20:26.544Z,4.10
2018-03-17T14:22:54.814Z,4.10
2018-03-17T14:25:22.333Z,4.10
2018-03-17T14:27:49.833Z,4.00
2018-03-17T14:30:18.158Z,4.10
2018-03-17T14:32:45.653Z,4.10
2018-03-17T14:35:13.171Z,4.10
2018-03-17T14:37:40.685Z,4.00
2018-03-17T14:40:09.055Z,4.00
2018-03-17T14:42:36.696Z,4.10
2018-03-17T14:45:04.413Z,4.00
2018-03-17T14:47:32.053Z,4.00
2018-03-17T14:49:59.573Z,3.90
2018-03-17T14:52:27.170Z,3.90
2018-03-17T14:54:54.819Z,3.80
2018-03-17T14:57:22.332Z,3.60
2018-03-17T14:59:49.837Z,3.50
2018-03-17T15:02:17.329Z,3.50
2018-03-17T15:04:44.844Z,3.50
2018-03-17T15:07:12.355Z,3.50
2018-03-17T15:09:39.861Z,3.50
2018-03-17T15:12:07.395Z,3.40
2018-03-17T15:14:34.905Z,3.40
2018-03-17T15:17:02.413Z,3.40
2018-03-17T15:19:29.954Z,3.50
2018-03-17T15:21:57.473Z,3.40
2018-03-17T15:24:25.036Z,3.30
2018-03-17T15:26:53.327Z,3.40
2018-03-17T15:29:21.591Z,3.40
2018-03-17T15:31:49.101Z,3.30
2018-03-17T15:34:16.608Z,3.40
2018-03-17T15:36:44.192Z,3.30
2018-03-17T15:39:11.727Z,3.40
2018-03-17T15:41:39.315Z,3.40
2018-03-17T15:44:07.570Z,3.40
2018-03-17T15:46:35.273Z,3.40
2018-03-17T15:49:02.836Z,3.40
2018-03-17T15:51:30.449Z,3.40
2018-03-17T15:53:58.041Z,3.30
2018-03-17T15:56:25.638Z,3.40
2018-03-17T15:58:53.145Z,3.40
2018-03-17T16:01:20.663Z,3.30
2018-03-17T16:03:48.261Z,3.30
2018-03-17T16:06:15.769Z,3.20
2018-03-17T16:08:43.263Z,3.10
2018-03-17T16:11:11.060Z,3.20
2018-03-17T16:13:38.716Z,3.10
2018-03-17T16:16:06.215Z,3.20
2018-03-17T16:18:33.720Z,3.20
2018-03-17T16:21:01.233Z,3.20
2018-03-17T16:23:28.773Z,3.10
2018-03-17T16:25:56.332Z,3.10
2018-03-17T16:28:23.839Z,3.00
2018-03-17T16:30:51.536Z,2.90
2018-03-17T16:33:19.078Z,2.80
2018-03-17T16:35:46.594Z,2.80
2018-03-17T16:38:14.098Z,2.80
2018-03-17T16:40:41.599Z,2.80
2018-03-17T16:43:09.109Z,2.80
2018-03-17T16:45:36.612Z,2.80
2018-03-17T16:48:04.180Z,2.70
2018-03-17T16:50:31.636Z,2.70
2018-03-17T16:52:59.133Z,2.60
2018-03-17T16:55:26.640Z,2.60
2018-03-17T16:57:54.145Z,2.50
2018-03-17T17:00:21.659Z,2.50
2018-03-17T17:02:49.168Z,2.60
2018-03-17T17:05:16.754Z,2.50
2018-03-17T17:07:44.254Z,2.50
2018-03-17T17:10:12.532Z,2.40
2018-03-17T17:12:40.046Z,2.40
2018-03-17T17:15:07.579Z,2.40
2018-03-17T17:17:37.538Z,2.30
2018-03-17T17:20:05.076Z,2.30
2018-03-17T17:22:33.404Z,2.30
2018-03-17T17:25:00.888Z,2.30
2018-03-17T17:27:28.392Z,2.30
2018-03-17T17:29:55.897Z,2.20
2018-03-17T17:32:23.417Z,2.20
2018-03-17T17:34:51.000Z,2.10
2018-03-17T17:37:19.276Z,2.20
2018-03-17T17:39:46.775Z,2.10
2018-03-17T17:42:14.277Z,2.10
2018-03-17T17:44:42.542Z,2.00
2018-03-17T17:47:10.040Z,2.00
2018-03-17T17:49:37.541Z,2.00
2018-03-17T17:52:05.057Z,2.00
2018-03-17T17:54:32.561Z,1.90
2018-03-17T17:57:00.072Z,1.80
2018-03-17T17:59:27.574Z,1.80
2018-03-17T18:01:55.100Z,1.80
2018-03-17T18:04:22.600Z,1.70
2018-03-17T18:09:16.200Z,1.70
2018-03-17T18:11:43.696Z,1.60
2018-03-17T18:14:11.195Z,1.70
2018-03-17T18:16:38.687Z,1.60
2018-03-17T18:19:06.192Z,1.50
2018-03-17T18:21:33.743Z,1.60
2018-03-17T18:24:01.301Z,1.60
2018-03-17T18:26:33.743Z,1.60
2018-03-17T18:29:01.532Z,1.60
2018-03-17T18:31:29.462Z,1.60
2018-03-17T18:33:57.906Z,1.60
2018-03-17T18:36:25.507Z,1.60
2018-03-17T18:38:53.698Z,1.60
2018-03-17T18:41:24.491Z,1.70
2018-03-17T18:43:52.105Z,1.70
2018-03-17T18:46:19.994Z,1.70
2018-03-17T18:48:48.657Z,1.70
2018-03-17T18:51:16.151Z,1.70
2018-03-17T18:53:44.007Z,1.70
2018-03-17T18:56:11.498Z,1.70
2018-03-17T18:58:40.007Z,1.80
2018-03-17T19:01:09.449Z,1.80
2018-03-17T19:03:37.167Z,1.80
2018-03-17T19:06:04.691Z,1.80
2018-03-17T19:08:32.302Z,1.70
2018-03-17T19:10:59.832Z,1.70
2018-03-17T19:13:38.389Z,1.60
2018-03-17T19:16:06.679Z,1.50
2018-03-17T19:18:35.302Z,1.40
2018-03-17T19:21:02.943Z,1.40
2018-03-17T19:23:34.152Z,1.40
2018-03-17T19:26:01.635Z,1.50
2018-03-17T19:28:29.142Z,1.40
2018-03-17T19:30:57.399Z,1.40
2018-03-17T19:33:25.841Z,1.50
2018-03-17T19:35:53.363Z,1.40
2018-03-17T19:38:20.868Z,1.50
2018-03-17T19:40:48.363Z,1.40
2018-03-17T19:43:16.628Z,1.40
2018-03-17T19:45:44.240Z,1.40
2018-03-17T19:48:11.739Z,1.40
2018-03-17T19:50:39.564Z,1.40
2018-03-17T19:53:07.080Z,1.40
2018-03-17T19:55:35.389Z,1.30
2018-03-17T19:58:02.997Z,1.30
2018-03-17T20:00:31.291Z,1.30
2018-03-17T20:02:58.819Z,1.30
2018-03-17T20:05:26.315Z,1.30
2018-03-17T20:07:54.899Z,1.20
2018-03-17T20:10:23.188Z,1.20
2018-03-17T20:12:50.795Z,1.20
2018-03-17T20:15:18.291Z,1.20
2018-03-17T20:17:45.806Z,1.10
2018-03-17T20:20:13.307Z,1.10
2018-03-17T20:22:40.809Z,1.10
2018-03-17T20:25:09.246Z,1.00
2018-03-17T20:27:37.503Z,1.00
2018-03-17T20:30:05.016Z,1.00
2018-03-17T20:32:35.858Z,1.00
2018-03-17T20:35:03.352Z,1.00
2018-03-17T20:37:32.236Z,1.00
2018-03-17T20:39:59.759Z,0.80
2018-03-17T20:42:27.251Z,0.80
2018-03-17T20:44:54.757Z,0.70
2018-03-17T20:47:22.409Z,0.70
2018-03-17T20:49:49.956Z,0.70
2018-03-17T20:52:17.454Z,0.70
2018-03-17T20:54:44.951Z,0.60
2018-03-17T20:57:12.448Z,0.60
2018-03-17T20:59:44.409Z,0.50
2018-03-17T21:02:16.644Z,0.50
2018-03-17T21:04:44.172Z,0.40
2018-03-17T21:07:11.659Z,0.40
2018-03-17T21:09:39.196Z,0.30
2018-03-17T21:12:06.907Z,0.30
2018-03-17T21:14:38.264Z,0.20
2018-03-17T21:17:06.564Z,0.20
2018-03-17T21:19:34.139Z,0.20
2018-03-17T21:22:04.105Z,0.20
2018-03-17T21:24:35.553Z,0.10
2018-03-17T21:27:03.155Z,0.10
2018-03-17T21:29:31.732Z,0.00
2018-03-17T21:31:59.301Z,0.00
2018-03-17T21:34:26.937Z,0.00
2018-03-17T21:36:55.284Z,0.00
2018-03-17T21:39:22.873Z,0.00
2018-03-17T21:41:51.216Z,0.00
2018-03-17T21:44:18.826Z,0.00
2018-03-17T21:46:46.363Z,0.00
2018-03-17T21:49:13.919Z,0.00
2018-03-17T21:51:42.249Z,-0.10
2018-03-17T21:54:09.824Z,-0.20
2018-03-17T21:56:37.417Z,-0.10
2018-03-17T21:59:05.969Z,-0.10
2018-03-17T22:01:33.726Z,-0.20
2018-03-17T22:04:01.308Z,-0.20
2018-03-17T22:06:32.851Z,-0.20
2018-03-17T22:09:00.468Z,-0.20
2018-03-17T22:11:28.821Z,-0.20
2018-03-17T22:13:56.509Z,-0.20
2018-03-17T22:16:24.154Z,-0.20
2018-03-17T22:18:52.542Z,-0.20
2018-03-17T22:21:20.169Z,-0.30
2018-03-17T22:23:47.752Z,-0.20
2018-03-17T22:26:16.130Z,-0.30
2018-03-17T22:28:43.740Z,-0.30
2018-03-17T22:31:11.324Z,-0.30
2018-03-17T22:33:38.920Z,-0.40
2018-03-17T22:36:07.228Z,-0.30
2018-03-17T22:38:34.901Z,-0.40
2018-03-17T22:41:02.490Z,-0.40
2018-03-17T22:43:30.041Z,-0.40
2018-03-17T22:45:57.633Z,-0.40
2018-03-17T22:48:25.174Z,-0.40
2018-03-17T22:50:52.804Z,-0.30
2018-03-17T22:53:20.388Z,-0.30
2018-03-17T22:55:47.976Z,-0.30
2018-03-17T22:58:16.336Z,-0.30
2018-03-17T23:00:43.889Z,-0.30
2018-03-17T23:03:13.039Z,-0.30
2018-03-17T23:05:40.685Z,-0.30
2018-03-17T23:08:08.297Z,-0.30
2018-03-17T23:10:35.907Z,-0.20
2018-03-17T23:13:04.251Z,-0.30
2018-03-17T23:15:31.852Z,-0.30
2018-03-17T23:18:23.230Z,-0.20
2018-03-17T23:20:50.821Z,-0.30
2018-03-17T23:23:18.417Z,-0.20
2018-03-17T23:25:46.111Z,-0.30
2018-03-17T23:28:13.680Z,-0.20
2018-03-17T23:30:41.284Z,-0.20
2018-03-17T23:33:08.894Z,-0.20
2018-03-17T23:35:36.515Z,-0.20
2018-03-17T23:38:04.083Z,-0.20
2018-03-17T23:40:31.671Z,-0.20
2018-03-17T23:42:59.262Z,-0.30
2018-03-17T23:45:27.611Z,-0.30
2018-03-17T23:47:55.236Z,-0.40
2018-03-17T23:50:23.226Z,-0.40
2018-03-17T23:52:50.800Z,-0.40
2018-03-17T23:55:18.383Z,-0.40
2018-03-17T23:57:45.914Z,-0.40
